createdAt,value
2018-05-16T00:02:24.167Z,12.10
2018-05-16T00:04:51.647Z,12.10
2018-05-16T00:07:19.111Z,12.10
2018-05-16T00:09:46.607Z,12.20
2018-05-16T00:12:14.826Z,12.10
2018-05-16T00:14:42.400Z,12.10
2018-05-16T00:17:09.863Z,12.10
2018-05-16T00:19:37.423Z,12.20
2018-05-16T00:22:04.984Z,12.10
2018-05-16T00:24:32.538Z,12.20
2018-05-16T00:26:59.998Z,12.10
2018-05-16T00:29:27.558Z,12.00
2018-05-16T00:31:55.038Z,12.00
2018-05-16T00:34:23.292Z,11.90
2018-05-16T00:36:50.781Z,11.90
2018-05-16T00:39:19.015Z,12.00
2018-05-16T00:41:46.607Z,11.90
2018-05-16T00:44:14.076Z,12.00
2018-05-16T00:46:42.333Z,12.20
2018-05-16T00:49:09.807Z,12.20
2018-05-16T00:51:38.066Z,12.20
2018-05-16T00:54:05.523Z,12.20
2018-05-16T00:56:33.011Z,12.10
2018-05-16T00:59:00.493Z,12.10
2018-05-16T01:01:27.978Z,12.10
2018-05-16T01:03:55.441Z,12.20
2018-05-16T01:06:22.943Z,12.10
2018-05-16T01:08:51.177Z,12.10
2018-05-16T01:11:18.663Z,12.10
2018-05-16T01:13:46.155Z,12.10
2018-05-16T01:16:13.670Z,12.20
2018-05-16T01:18:41.944Z,12.50
2018-05-16T01:21:09.452Z,12.50
2018-05-16T01:23:36.939Z,12.40
2018-05-16T01:26:04.399Z,12.30
2018-05-16T01:28:31.902Z,12.20
2018-05-16T01:31:00.145Z,12.00
2018-05-16T01:33:27.627Z,12.00
2018-05-16T01:35:55.853Z,12.00
2018-05-16T01:38:23.347Z,11.90
2018-05-16T01:40:50.809Z,12.00
2018-05-16T01:43:18.286Z,12.00
2018-05-16T01:45:46.538Z,12.00
2018-05-16T01:48:13.993Z,12.00
2018-05-16T01:50:41.559Z,12.00
2018-05-16T01:53:09.034Z,12.10
2018-05-16T01:55:36.512Z,12.10
2018-05-16T01:58:03.974Z,12.20
2018-05-16T02:00:31.471Z,12.10
2018-05-16T02:02:58.936Z,12.10
2018-05-16T02:05:26.468Z,12.10
2018-05-16T02:07:53.925Z,12.00
2018-05-16T02:10:21.433Z,12.00
2018-05-16T02:12:48.983Z,12.10
2018-05-16T02:15:16.482Z,12.20
2018-05-16T02:17:43.947Z,12.30
2018-05-16T02:20:11.395Z,12.30
2018-05-16T02:22:38.925Z,12.30
2018-05-16T02:25:06.475Z,12.30
2018-05-16T02:27:33.965Z,12.40
2018-05-16T02:30:02.181Z,12.50
2018-05-16T02:32:29.742Z,12.50
2018-05-16T02:34:57.242Z,12.40
2018-05-16T02:37:24.795Z,12.30
2018-05-16T02:39:52.950Z,12.10
2018-05-16T02:42:20.525Z,12.10
2018-05-16T02:44:47.982Z,12.10
2018-05-16T02:47:15.460Z,12.10
2018-05-16T02:49:43.681Z,12.00
2018-05-16T02:52:11.190Z,12.00
2018-05-16T02:54:38.731Z,12.00
2018-05-16T02:57:06.195Z,11.90
2018-05-16T02:59:33.671Z,12.00
2018-05-16T03:02:01.910Z,11.70
2018-05-16T03:04:29.374Z,11.70
2018-05-16T03:06:56.957Z,11.60
2018-05-16T03:09:24.427Z,11.70
2018-05-16T03:11:52.681Z,11.60
2018-05-16T03:14:20.241Z,11.60
2018-05-16T03:16:47.698Z,11.40
2018-05-16T03:19:15.946Z,11.50
2018-05-16T03:21:43.402Z,11.50
2018-05-16T03:24:10.878Z,11.40
2018-05-16T03:26:38.343Z,11.50
2018-05-16T03:29:05.823Z,11.40
2018-05-16T03:31:33.284Z,11.30
2018-05-16T03:34:00.751Z,11.40
2018-05-16T03:36:29.027Z,11.40
2018-05-16T03:38:57.271Z,11.40
2018-05-16T03:41:24.755Z,11.40
2018-05-16T03:43:52.986Z,11.50
2018-05-16T03:46:20.462Z,11.40
2018-05-16T03:48:47.946Z,11.40
2018-05-16T03:51:15.496Z,11.30
2018-05-16T03:53:43.066Z,11.50
2018-05-16T03:56:12.163Z,11.50
2018-05-16T03:58:51.651Z,11.50
2018-05-16T04:01:31.140Z,11.60
2018-05-16T04:04:17.397Z,11.70
2018-05-16T04:06:44.903Z,11.70
2018-05-16T04:09:12.354Z,11.60
2018-05-16T04:11:39.867Z,11.60
2018-05-16T04:14:07.314Z,11.50
2018-05-16T04:16:34.765Z,11.50
2018-05-16T04:19:02.237Z,11.50
2018-05-16T04:21:29.705Z,11.30
2018-05-16T04:23:57.175Z,11.30
2018-05-16T04:26:24.647Z,11.30
2018-05-16T04:28:52.282Z,11.30
2018-05-16T04:31:19.762Z,11.30
2018-05-16T04:33:47.252Z,11.30
2018-05-16T04:36:15.479Z,11.30
2018-05-16T04:38:42.954Z,11.20
2018-05-16T04:41:10.418Z,11.40
2018-05-16T04:43:37.897Z,11.30
2018-05-16T04:46:05.360Z,11.30
2018-05-16T04:48:33.646Z,11.40
2018-05-16T04:51:01.894Z,11.50
2018-05-16T04:53:29.446Z,11.50
2018-05-16T04:55:56.929Z,11.30
2018-05-16T04:58:24.413Z,11.20
2018-05-16T05:00:52.808Z,11.20
2018-05-16T05:03:20.316Z,11.20
2018-05-16T05:05:47.787Z,11.40
2018-05-16T05:08:16.063Z,11.40
2018-05-16T05:10:43.534Z,11.40
2018-05-16T05:13:11.002Z,11.50
2018-05-16T05:15:38.484Z,11.40
2018-05-16T05:18:05.982Z,11.30
2018-05-16T05:20:33.542Z,11.30
2018-05-16T05:23:01.029Z,11.20
2018-05-16T05:25:29.284Z,11.20
2018-05-16T05:27:56.834Z,11.20
2018-05-16T05:30:24.329Z,11.30
2018-05-16T05:32:51.792Z,11.30
2018-05-16T05:35:19.257Z,11.20
2018-05-16T05:37:46.743Z,11.20
2018-05-16T05:40:14.219Z,11.20
2018-05-16T05:42:41.691Z,11.10
2018-05-16T05:45:09.239Z,10.80
2018-05-16T05:47:36.724Z,10.90
2018-05-16T05:50:04.976Z,10.90
2018-05-16T05:52:33.979Z,11.00
2018-05-16T05:55:01.428Z,11.00
2018-05-16T05:57:28.918Z,11.10
2018-05-16T05:59:57.205Z,11.40
2018-05-16T06:02:24.629Z,11.40
2018-05-16T06:04:52.113Z,11.50
2018-05-16T06:07:20.906Z,11.60
2018-05-16T06:09:48.402Z,11.60
2018-05-16T06:12:15.849Z,11.60
2018-05-16T06:14:43.339Z,11.50
2018-05-16T06:17:10.908Z,11.50
2018-05-16T06:19:38.564Z,11.50
2018-05-16T06:22:05.923Z,11.60
2018-05-16T06:24:33.407Z,11.70
2018-05-16T06:27:01.689Z,11.80
2018-05-16T06:29:30.648Z,11.70
2018-05-16T06:31:58.124Z,11.80
2018-05-16T06:34:26.382Z,11.90
2018-05-16T06:36:53.890Z,11.90
2018-05-16T06:39:22.102Z,12.00
2018-05-16T06:41:49.608Z,11.90
2018-05-16T06:44:17.830Z,11.90
2018-05-16T06:46:45.299Z,11.90
2018-05-16T06:49:12.771Z,11.80
2018-05-16T06:51:40.247Z,11.80
2018-05-16T06:54:07.700Z,11.90
2018-05-16T06:56:35.254Z,11.90
2018-05-16T06:59:02.812Z,11.80
2018-05-16T07:01:30.287Z,11.80
2018-05-16T07:03:58.600Z,12.00
2018-05-16T07:06:26.014Z,12.00
2018-05-16T07:08:53.470Z,11.70
2018-05-16T07:11:20.957Z,11.80
2018-05-16T07:13:48.450Z,12.00
2018-05-16T07:16:15.923Z,12.30
2018-05-16T07:18:43.505Z,12.10
2018-05-16T07:21:11.961Z,12.00
2018-05-16T07:23:39.532Z,12.40
2018-05-16T07:26:07.003Z,12.40
2018-05-16T07:28:34.547Z,12.30
2018-05-16T07:31:03.546Z,12.20
2018-05-16T07:33:31.107Z,12.20
2018-05-16T07:35:58.674Z,12.30
2018-05-16T07:38:26.183Z,12.20
2018-05-16T07:40:53.664Z,12.50
2018-05-16T07:43:21.184Z,12.70
2018-05-16T07:45:49.431Z,12.80
2018-05-16T07:48:16.936Z,12.80
2018-05-16T07:50:44.451Z,12.90
2018-05-16T07:53:11.951Z,12.80
2018-05-16T07:55:39.457Z,12.90
2018-05-16T07:58:06.936Z,12.60
2018-05-16T08:00:34.448Z,12.50
2018-05-16T08:03:02.012Z,12.30
2018-05-16T08:05:29.513Z,12.00
2018-05-16T08:07:57.008Z,12.10
2018-05-16T08:10:24.504Z,12.10
2018-05-16T08:12:52.005Z,12.20
2018-05-16T08:15:20.275Z,12.40
2018-05-16T08:17:48.519Z,12.60
2018-05-16T08:20:16.027Z,12.60
2018-05-16T08:22:43.540Z,12.70
2018-05-16T08:25:11.068Z,12.80
2018-05-16T08:27:38.572Z,13.00
2018-05-16T08:30:06.055Z,13.20
2018-05-16T08:32:34.324Z,13.00
2018-05-16T08:35:02.608Z,13.00
2018-05-16T08:37:30.863Z,12.80
2018-05-16T08:39:58.331Z,12.80
2018-05-16T08:42:26.603Z,12.70
2018-05-16T08:44:54.110Z,12.70
2018-05-16T08:47:21.607Z,12.70
2018-05-16T08:49:49.087Z,12.60
2018-05-16T08:52:17.362Z,13.10
2018-05-16T08:54:44.837Z,13.10
2018-05-16T08:57:13.106Z,13.40
2018-05-16T08:59:41.358Z,13.40
2018-05-16T09:02:09.622Z,13.30
2018-05-16T09:04:37.098Z,13.20
2018-05-16T09:07:04.599Z,13.40
2018-05-16T09:09:32.096Z,13.40
2018-05-16T09:11:59.580Z,13.50
2018-05-16T09:14:27.083Z,13.40
2018-05-16T09:16:54.565Z,13.20
2018-05-16T09:19:22.071Z,13.30
2018-05-16T09:21:50.322Z,13.70
2018-05-16T09:24:17.824Z,13.70
2018-05-16T09:26:45.320Z,14.00
2018-05-16T09:29:12.819Z,14.00
2018-05-16T09:31:41.091Z,13.70
2018-05-16T09:34:08.588Z,13.70
2018-05-16T09:36:36.099Z,13.50
2018-05-16T09:39:03.603Z,13.50
2018-05-16T09:41:31.096Z,13.60
2018-05-16T09:43:58.618Z,13.70
2018-05-16T09:46:26.096Z,13.90
2018-05-16T09:48:53.577Z,14.10
2018-05-16T09:51:21.104Z,14.50
2018-05-16T09:53:48.606Z,14.80
2018-05-16T09:56:16.079Z,15.00
2018-05-16T09:58:43.589Z,14.90
2018-05-16T10:01:11.064Z,14.90
2018-05-16T10:03:38.574Z,14.90
2018-05-16T10:06:06.839Z,15.00
2018-05-16T10:08:35.100Z,15.10
2018-05-16T10:11:02.576Z,15.00
2018-05-16T10:13:30.842Z,15.20
2018-05-16T10:15:58.311Z,15.20
2018-05-16T10:18:26.596Z,15.30
2018-05-16T10:20:54.831Z,15.20
2018-05-16T10:23:22.357Z,15.20
2018-05-16T10:25:49.837Z,15.10
2018-05-16T10:28:17.311Z,14.70
2018-05-16T10:30:44.805Z,14.50
2018-05-16T10:33:13.047Z,14.20
2018-05-16T10:35:40.544Z,14.20
2018-05-16T10:38:08.020Z,14.10
2018-05-16T10:40:35.533Z,13.90
2018-05-16T10:43:02.995Z,13.70
2018-05-16T10:45:30.500Z,13.60
2018-05-16T10:47:57.987Z,13.70
2018-05-16T10:50:25.497Z,13.70
2018-05-16T10:52:52.983Z,13.60
2018-05-16T10:55:20.494Z,13.60
2018-05-16T10:57:48.740Z,13.40
2018-05-16T11:00:16.258Z,13.40
2018-05-16T11:02:43.742Z,13.40
2018-05-16T11:05:11.224Z,13.60
2018-05-16T11:07:38.727Z,13.40
2018-05-16T11:10:06.215Z,13.60
2018-05-16T11:12:33.769Z,13.60
2018-05-16T11:15:01.331Z,13.60
2018-05-16T11:17:28.831Z,13.70
2018-05-16T11:19:56.312Z,13.80
2018-05-16T11:22:24.587Z,13.60
2018-05-16T11:24:52.950Z,13.60
2018-05-16T11:27:20.461Z,13.80
2018-05-16T11:29:47.936Z,13.90
2018-05-16T11:32:15.451Z,13.70
2018-05-16T11:34:43.699Z,13.80
2018-05-16T11:37:11.216Z,13.80
2018-05-16T11:39:38.694Z,13.70
2018-05-16T11:42:06.193Z,13.90
2018-05-16T11:44:34.455Z,14.20
2018-05-16T11:47:01.945Z,14.20
2018-05-16T11:49:30.225Z,14.60
2018-05-16T11:51:58.468Z,14.60
2018-05-16T11:54:25.979Z,14.60
2018-05-16T11:56:53.453Z,15.00
2018-05-16T11:59:21.015Z,15.00
2018-05-16T12:01:48.427Z,15.20
2018-05-16T12:04:16.688Z,14.90
2018-05-16T12:06:44.176Z,15.00
2018-05-16T12:09:11.760Z,14.80
2018-05-16T12:11:39.188Z,14.60
2018-05-16T12:14:06.667Z,14.60
2018-05-16T12:16:34.172Z,14.70
2018-05-16T12:19:01.654Z,14.90
2018-05-16T12:21:29.919Z,15.10
2018-05-16T12:23:58.180Z,15.40
2018-05-16T12:26:25.675Z,15.30
2018-05-16T12:28:53.241Z,15.60
2018-05-16T12:31:20.676Z,16.10
2018-05-16T12:33:48.932Z,17.00
2018-05-16T12:36:16.442Z,16.90
2018-05-16T12:38:43.919Z,17.30
2018-05-16T12:41:11.437Z,17.60
2018-05-16T12:43:39.686Z,17.90
2018-05-16T12:46:07.163Z,17.90
2018-05-16T12:48:35.435Z,18.10
2018-05-16T12:51:02.894Z,18.00
2018-05-16T12:53:30.406Z,18.30
2018-05-16T12:55:57.894Z,18.50
2018-05-16T12:58:25.392Z,18.30
2018-05-16T13:00:52.870Z,17.90
2018-05-16T13:03:20.374Z,18.00
2018-05-16T13:05:47.827Z,18.30
2018-05-16T13:08:15.337Z,18.40
2018-05-16T13:10:42.775Z,18.50
2018-05-16T13:13:11.075Z,18.50
2018-05-16T13:15:38.597Z,18.50
2018-05-16T13:18:06.261Z,17.90
2018-05-16T13:20:33.587Z,17.40
2018-05-16T13:23:01.075Z,17.80
2018-05-16T13:25:28.567Z,17.80
2018-05-16T13:27:56.068Z,17.60
2018-05-16T13:30:23.575Z,17.70
2018-05-16T13:32:51.819Z,17.60
2018-05-16T13:35:19.341Z,17.50
2018-05-16T13:37:46.816Z,17.20
2018-05-16T13:40:14.324Z,17.10
2018-05-16T13:42:41.835Z,16.90
2018-05-16T13:45:09.349Z,16.50
2018-05-16T13:47:36.827Z,16.60
2018-05-16T13:50:04.363Z,16.50
2018-05-16T13:52:32.644Z,17.20
2018-05-16T13:55:00.120Z,17.20
2018-05-16T13:57:27.628Z,17.40
2018-05-16T13:59:55.109Z,17.70
2018-05-16T14:02:23.392Z,17.50
2018-05-16T14:04:51.700Z,17.70
2018-05-16T14:07:19.215Z,17.60
2018-05-16T14:09:47.529Z,18.40
2018-05-16T14:12:15.023Z,18.40
2018-05-16T14:14:42.505Z,18.70
2018-05-16T14:17:10.017Z,19.00
2018-05-16T14:19:37.499Z,18.90
2018-05-16T14:22:05.012Z,19.00
2018-05-16T14:24:32.484Z,19.10
2018-05-16T14:27:00.067Z,18.80
2018-05-16T14:29:27.547Z,18.80
2018-05-16T14:31:55.024Z,18.70
2018-05-16T14:34:23.363Z,18.30
2018-05-16T14:36:50.880Z,18.30
2018-05-16T14:39:18.390Z,18.20
2018-05-16T14:41:45.959Z,17.80
2018-05-16T14:44:13.471Z,17.70
2018-05-16T14:46:40.975Z,17.40
2018-05-16T14:49:08.507Z,17.30
2018-05-16T14:51:36.031Z,17.30
2018-05-16T14:54:04.315Z,17.20
2018-05-16T14:56:31.805Z,17.20
2018-05-16T14:58:59.295Z,17.30
2018-05-16T15:01:26.795Z,17.30
2018-05-16T15:03:54.344Z,17.20
2018-05-16T15:06:21.837Z,17.20
2018-05-16T15:08:49.344Z,17.30
2018-05-16T15:11:16.824Z,17.30
2018-05-16T15:13:44.311Z,17.20
2018-05-16T15:16:11.815Z,17.00
2018-05-16T15:18:39.338Z,17.10
2018-05-16T15:21:06.896Z,16.90
2018-05-16T15:23:34.460Z,16.70
2018-05-16T15:26:01.975Z,16.70
2018-05-16T15:28:30.214Z,16.50
2018-05-16T15:30:57.711Z,16.50
2018-05-16T15:33:25.957Z,16.30
2018-05-16T15:35:53.494Z,16.30
2018-05-16T15:38:21.016Z,16.40
2018-05-16T15:40:49.251Z,16.00
2018-05-16T15:43:16.738Z,16.00
2018-05-16T15:45:45.016Z,15.70
2018-05-16T15:48:13.260Z,15.40
2018-05-16T15:50:40.771Z,15.40
2018-05-16T15:53:08.264Z,15.20
2018-05-16T15:55:35.751Z,14.90
2018-05-16T15:58:03.239Z,14.90
2018-05-16T16:00:30.777Z,14.80
2018-05-16T16:02:58.273Z,14.50
2018-05-16T16:05:25.763Z,14.30
2018-05-16T16:07:53.276Z,13.90
2018-05-16T16:10:20.751Z,14.00
2018-05-16T16:12:48.313Z,14.20
2018-05-16T16:15:15.788Z,14.50
2018-05-16T16:17:43.287Z,14.50
2018-05-16T16:20:11.558Z,14.90
2018-05-16T16:22:39.144Z,14.80
2018-05-16T16:25:06.708Z,14.80
2018-05-16T16:27:34.195Z,14.80
2018-05-16T16:30:01.697Z,14.90
2018-05-16T16:32:29.375Z,15.00
2018-05-16T16:34:57.640Z,14.90
2018-05-16T16:37:25.920Z,14.80
2018-05-16T16:39:54.171Z,15.00
2018-05-16T16:42:21.688Z,14.90
2018-05-16T16:44:49.283Z,14.90
2018-05-16T16:47:16.846Z,14.90
2018-05-16T16:49:44.355Z,15.00
2018-05-16T16:52:11.839Z,15.00
2018-05-16T16:54:39.360Z,15.10
2018-05-16T16:57:07.632Z,14.70
2018-05-16T16:59:35.092Z,14.70
2018-05-16T17:02:03.360Z,14.20
2018-05-16T17:04:30.910Z,14.20
2018-05-16T17:06:58.581Z,13.70
2018-05-16T17:09:26.904Z,13.60
2018-05-16T17:11:54.420Z,13.50
2018-05-16T17:14:22.759Z,13.60
2018-05-16T17:16:50.285Z,13.60
2018-05-16T17:19:18.684Z,13.80
2018-05-16T17:21:46.190Z,13.80
2018-05-16T17:24:13.681Z,13.80
2018-05-16T17:26:41.961Z,13.60
2018-05-16T17:29:09.462Z,13.50
2018-05-16T17:31:36.997Z,13.60
2018-05-16T17:34:04.558Z,13.60
2018-05-16T17:36:32.047Z,13.60
2018-05-16T17:38:59.578Z,13.60
2018-05-16T17:41:27.048Z,13.70
2018-05-16T17:43:54.615Z,13.70
2018-05-16T17:46:22.117Z,13.60
2018-05-16T17:48:50.397Z,13.70
2018-05-16T17:51:18.658Z,13.50
2018-05-16T17:53:46.183Z,13.50
2018-05-16T17:56:13.701Z,13.50
2018-05-16T17:58:41.228Z,13.60
2018-05-16T18:01:08.710Z,13.50
2018-05-16T18:03:37.028Z,13.30
2018-05-16T18:06:04.536Z,13.30
2018-05-16T18:08:32.786Z,13.00
2018-05-16T18:11:00.297Z,13.00
2018-05-16T18:13:57.534Z,12.90
2018-05-16T18:16:37.868Z,12.90
2018-05-16T18:19:05.391Z,12.90
2018-05-16T18:21:32.955Z,12.80
2018-05-16T18:24:00.469Z,12.80
2018-05-16T18:26:28.791Z,12.80
2018-05-16T18:28:56.262Z,12.80
2018-05-16T18:31:23.797Z,12.80
2018-05-16T18:33:51.276Z,12.80
2018-05-16T18:36:18.837Z,12.80
2018-05-16T18:38:46.347Z,12.80
2018-05-16T18:41:14.620Z,12.80
2018-05-16T18:43:42.948Z,12.60
2018-05-16T18:46:10.439Z,12.60
2018-05-16T18:48:37.985Z,12.60
2018-05-16T18:51:05.495Z,12.50
2018-05-16T18:53:33.084Z,12.50
2018-05-16T18:56:00.702Z,12.50
2018-05-16T18:58:28.132Z,12.50
2018-05-16T19:00:55.633Z,12.50
2018-05-16T19:03:23.182Z,12.50
2018-05-16T19:05:51.467Z,12.40
2018-05-16T19:08:19.729Z,12.60
2018-05-16T19:10:48.010Z,12.50
2018-05-16T19:13:16.325Z,12.50
2018-05-16T19:15:43.803Z,12.50
2018-05-16T19:18:11.306Z,12.50
2018-05-16T19:20:39.579Z,12.60
2018-05-16T19:23:07.822Z,12.50
2018-05-16T19:25:35.347Z,12.50
2018-05-16T19:28:02.848Z,12.50
2018-05-16T19:30:30.360Z,12.40
2018-05-16T19:32:57.849Z,12.20
2018-05-16T19:35:25.356Z,12.30
2018-05-16T19:37:53.620Z,12.40
2018-05-16T19:40:21.899Z,12.40
2018-05-16T19:42:49.402Z,12.40
2018-05-16T19:45:16.908Z,12.30
2018-05-16T19:47:45.198Z,12.30
2018-05-16T19:50:13.456Z,12.30
2018-05-16T19:52:40.991Z,12.20
2018-05-16T19:55:08.499Z,12.20
2018-05-16T19:57:36.772Z,12.10
2018-05-16T20:00:04.283Z,12.10
2018-05-16T20:02:31.840Z,12.10
2018-05-16T20:04:59.359Z,12.00
2018-05-16T20:07:27.616Z,12.00
2018-05-16T20:09:55.119Z,12.00
2018-05-16T20:12:22.600Z,12.00
2018-05-16T20:14:50.166Z,12.10
2018-05-16T20:17:17.627Z,12.10
2018-05-16T20:19:45.148Z,12.10
2018-05-16T20:22:12.642Z,12.20
2018-05-16T20:24:40.128Z,12.20
2018-05-16T20:27:07.647Z,12.10
2018-05-16T20:29:35.119Z,12.10
2018-05-16T20:32:02.695Z,12.10
2018-05-16T20:34:30.175Z,12.00
2018-05-16T20:36:57.971Z,12.10
2018-05-16T20:39:25.475Z,12.00
2018-05-16T20:41:52.995Z,12.10
2018-05-16T20:44:20.504Z,12.00
2018-05-16T20:46:48.028Z,11.80
2018-05-16T20:49:15.527Z,11.80
2018-05-16T20:51:43.039Z,11.80
2018-05-16T20:54:10.525Z,11.70
2018-05-16T20:56:38.042Z,11.60
2018-05-16T20:59:05.526Z,11.60
2018-05-16T21:01:33.040Z,11.50
2018-05-16T21:04:01.294Z,11.40
2018-05-16T21:06:28.776Z,11.30
2018-05-16T21:08:57.051Z,11.30
2018-05-16T21:11:25.307Z,11.30
2018-05-16T21:13:52.798Z,11.30
2018-05-16T21:16:20.276Z,11.20
2018-05-16T21:18:47.783Z,11.20
2018-05-16T21:21:16.052Z,11.10
2018-05-16T21:23:43.544Z,11.10
2018-05-16T21:26:11.811Z,11.00
2018-05-16T21:28:40.154Z,11.00
2018-05-16T21:31:08.348Z,11.10
2018-05-16T21:33:35.860Z,11.00
2018-05-16T21:36:03.344Z,11.00
2018-05-16T21:38:30.844Z,11.00
2018-05-16T21:40:59.096Z,11.00
2018-05-16T21:43:26.608Z,11.00
2018-05-16T21:45:54.159Z,10.90
2018-05-16T21:48:21.619Z,10.90
2018-05-16T21:50:49.103Z,10.90
2018-05-16T21:53:16.600Z,10.80
2018-05-16T21:55:44.102Z,10.80
2018-05-16T21:58:12.243Z,10.90
2018-05-16T22:00:39.748Z,11.00
2018-05-16T22:03:07.240Z,11.00
2018-05-16T22:05:34.767Z,11.10
2018-05-16T22:08:02.243Z,11.10
2018-05-16T22:10:29.784Z,11.10
2018-05-16T22:12:57.269Z,11.10
2018-05-16T22:15:24.754Z,11.10
2018-05-16T22:17:52.268Z,11.20
2018-05-16T22:20:19.750Z,11.20
2018-05-16T22:22:47.244Z,11.20
2018-05-16T22:25:15.539Z,11.20
2018-05-16T22:27:43.023Z,11.20
2018-05-16T22:30:10.020Z,11.20
2018-05-16T22:32:44.890Z,11.30
2018-05-16T22:35:18.028Z,11.30
2018-05-16T22:37:51.141Z,11.30
2018-05-16T22:40:25.023Z,11.50
2018-05-16T22:42:52.035Z,11.50
2018-05-16T22:45:21.043Z,11.60
2018-05-16T22:47:48.539Z,11.50
2018-05-16T22:50:16.043Z,11.50
2018-05-16T22:52:43.566Z,11.50
2018-05-16T22:55:11.811Z,11.60
2018-05-16T22:57:39.323Z,11.60
2018-05-16T23:00:06.813Z,11.50
2018-05-16T23:02:34.311Z,11.50
2018-05-16T23:05:02.575Z,11.40
2018-05-16T23:07:30.068Z,11.40
2018-05-16T23:09:57.580Z,11.30
2018-05-16T23:12:25.092Z,11.30
2018-05-16T23:14:52.595Z,11.20
2018-05-16T23:17:20.093Z,11.10
2018-05-16T23:19:48.376Z,11.00
2018-05-16T23:22:16.634Z,10.90
2018-05-16T23:24:44.136Z,10.90
2018-05-16T23:27:11.638Z,10.90
2018-05-16T23:29:39.148Z,10.80
2018-05-16T23:32:06.658Z,10.80
2018-05-16T23:34:34.147Z,10.80
2018-05-16T23:37:02.414Z,10.90
2018-05-16T23:39:30.674Z,11.00
2018-05-16T23:41:58.182Z,11.00
2018-05-16T23:44:25.673Z,11.10
2018-05-16T23:46:53.174Z,11.20
2018-05-16T23:49:21.437Z,11.20
2018-05-16T23:51:48.947Z,11.20
2018-05-16T23:54:16.444Z,11.20
2018-05-16T23:56:43.969Z,11.30
2018-05-16T23:59:11.448Z,11.30
